Time;durP1;ratioP1;P1;durP2;ratioP2;P2;SDS_P1;SDS_P2;PMS_P1;PMS_P2;Temp;Humidity;BMP_temperature;BMP_pressure;BME280_temperature;BME280_humidity;BME280_pressure;Samples;Min_cycle;Max_cycle;Signal;HPM_P1;HPM_P2
2022/06/05 00:02:33;;;;;;;;;;;;;;;28.73;32.77;100777.19;5055696;28;1080;-46
2022/06/05 00:05:01;;;;;;;;;;;;;;;28.68;32.84;100772.34;5055234;28;961;-47
2022/06/05 00:07:31;;;;;;;;;;;;;;;28.67;32.77;100776.09;5033104;28;970;-47
2022/06/05 00:10:13;;;;;;;;;;;;;;;28.68;32.95;100777.78;5038087;28;1909;-47
2022/06/05 00:12:40;;;;;;;;;;;;;;;28.64;32.43;100765.66;5054954;28;1056;-45
2022/06/05 00:15:05;;;;;;;;;;;;;;;28.52;32.56;100775.31;5037648;28;1061;-47
2022/06/05 00:17:31;;;;;;;;;;;;;;;28.66;33.21;100768.19;5054712;28;962;-46
2022/06/05 00:19:56;;;;;;;;;;;;;;;28.69;33.29;100765.09;5055448;28;1012;-45
2022/06/05 00:22:22;;;;;;;;;;;;;;;28.66;32.86;100754.66;5055431;28;1159;-46
2022/06/05 00:24:47;;;;;;;;;;;;;;;28.71;33.16;100753.00;5055597;28;1052;-47
2022/06/05 00:27:16;;;;;;;;;;;;;;;28.73;32.99;100745.53;5055030;28;1183;-47
2022/06/05 00:29:41;;;;;;;;;;;;;;;28.73;32.90;100739.28;5054626;28;1965;-49
2022/06/05 00:32:30;;;;;;;;;;;;;;;28.70;32.76;100740.53;5054824;28;1559;-46
2022/06/05 00:34:55;;;;;;;;;;;;;;;28.69;33.00;100741.56;5034018;28;1048;-47
2022/06/05 00:37:39;;;;;;;;;;;;;;;28.77;32.70;100742.44;5055471;28;977;-47
2022/06/05 00:40:28;;;;;;;;;;;;;;;28.72;32.87;100734.91;5049468;28;1013;-47
2022/06/05 00:42:53;;;;;;;;;;;;;;;28.72;32.89;100718.69;5043226;28;1272;-47
2022/06/05 00:45:19;;;;;;;;;;;;;;;28.70;32.76;100718.88;5055127;28;1051;-47
2022/06/05 00:47:44;;;;;;;;;;;;;;;28.75;32.58;100714.72;5055058;28;1124;-47
2022/06/05 00:50:17;;;;;;;;;;;;;;;28.71;32.95;100715.13;5037342;28;1963;-48
2022/06/05 00:52:43;;;;;;;;;;;;;;;28.75;32.72;100718.28;5055231;28;1009;-46
2022/06/05 00:55:09;;;;;;;;;;;;;;;28.74;32.51;100711.19;5050077;28;1163;-47
2022/06/05 00:57:34;;;;;;;;;;;;;;;28.73;32.64;100717.63;5058956;28;998;-46
2022/06/05 01:00:00;;;;;;;;;;;;;;;28.70;32.37;100716.16;5041520;28;1452;-47
2022/06/05 01:02:25;;;;;;;;;;;;;;;28.72;32.79;100722.22;5040557;28;871;-48
2022/06/05 01:04:51;;;;;;;;;;;;;;;28.74;32.48;100716.63;5058547;28;938;-47
2022/06/05 01:07:17;;;;;;;;;;;;;;;28.68;32.84;100710.09;5058650;28;977;-48
2022/06/05 01:09:42;;;;;;;;;;;;;;;28.71;32.32;100704.28;5059062;28;1898;-47
2022/06/05 01:12:26;;;;;;;;;;;;;;;28.65;32.43;100701.53;5058709;28;1243;-48
2022/06/05 01:15:06;;;;;;;;;;;;;;;28.69;32.61;100705.53;5058899;28;1009;-49
2022/06/05 01:17:39;;;;;;;;;;;;;;;28.70;32.70;100712.59;5058130;28;980;-47
2022/06/05 01:20:05;;;;;;;;;;;;;;;28.69;32.15;100703.66;5040283;28;1060;-47
2022/06/05 01:22:48;;;;;;;;;;;;;;;28.68;32.48;100701.97;5056751;28;1211;-47
2022/06/05 01:25:30;;;;;;;;;;;;;;;28.67;32.28;100697.59;5053059;28;1183;-48
2022/06/05 01:27:56;;;;;;;;;;;;;;;28.71;31.88;100693.47;5036915;28;1092;-45
2022/06/05 01:30:21;;;;;;;;;;;;;;;28.70;32.62;100690.97;5039640;28;1957;-46
2022/06/05 01:32:51;;;;;;;;;;;;;;;28.74;32.34;100692.25;5057873;28;1017;-48
2022/06/05 01:35:18;;;;;;;;;;;;;;;28.73;32.13;100688.69;5040745;28;998;-45
2022/06/05 01:37:49;;;;;;;;;;;;;;;28.70;32.64;100685.53;5058449;28;1144;-46
2022/06/05 01:40:30;;;;;;;;;;;;;;;28.69;32.30;100683.88;5058303;28;982;-47
2022/06/05 01:42:57;;;;;;;;;;;;;;;28.71;32.53;100692.66;5037362;28;1045;-46
2022/06/05 01:45:23;;;;;;;;;;;;;;;28.67;32.54;100688.66;5039092;28;1022;-46
2022/06/05 01:47:49;;;;;;;;;;;;;;;28.67;32.15;100689.50;5057273;28;1296;-46
2022/06/05 01:50:16;;;;;;;;;;;;;;;28.63;32.25;100685.47;5040644;28;1910;-47
2022/06/05 01:52:50;;;;;;;;;;;;;;;28.69;32.54;100681.16;5040389;28;1072;-46
2022/06/05 01:55:16;;;;;;;;;;;;;;;28.71;32.38;100684.53;5039523;28;1167;-45
2022/06/05 01:57:42;;;;;;;;;;;;;;;28.71;32.48;100682.63;5040238;28;1128;-46
2022/06/05 02:00:11;;;;;;;;;;;;;;;28.68;32.38;100687.59;5056926;28;1502;-45
2022/06/05 02:02:42;;;;;;;;;;;;;;;28.62;32.76;100691.09;5057897;28;1007;-45
2022/06/05 02:05:11;;;;;;;;;;;;;;;28.66;32.72;100695.91;5050268;28;1001;-45
2022/06/05 02:07:56;;;;;;;;;;;;;;;28.60;32.42;100694.84;5034638;28;1037;-46
2022/06/05 02:10:24;;;;;;;;;;;;;;;28.62;32.73;100693.81;5027583;28;1955;-46
2022/06/05 02:12:49;;;;;;;;;;;;;;;28.59;32.57;100693.16;5056179;28;883;-47
2022/06/05 02:15:15;;;;;;;;;;;;;;;28.66;33.00;100693.22;5056960;28;1072;-51
2022/06/05 02:17:40;;;;;;;;;;;;;;;28.69;32.56;100695.56;5057446;28;1108;-45
2022/06/05 02:20:06;;;;;;;;;;;;;;;28.74;32.45;100694.97;5039983;28;1049;-48
2022/06/05 02:22:58;;;;;;;;;;;;;;;28.73;32.04;100691.41;5040054;28;1069;-48
2022/06/05 02:25:24;;;;;;;;;;;;;;;28.65;32.78;100688.84;5053515;28;1290;-48
2022/06/05 02:27:50;;;;;;;;;;;;;;;28.67;32.12;100694.06;5057320;28;1025;-47
2022/06/05 02:30:15;;;;;;;;;;;;;;;28.72;32.63;100703.28;5057141;28;1967;-47
2022/06/05 02:32:41;;;;;;;;;;;;;;;28.66;32.52;100701.34;5039677;28;1216;-46
2022/06/05 02:35:09;;;;;;;;;;;;;;;28.72;32.58;100700.56;5056878;28;1084;-47
2022/06/05 02:37:54;;;;;;;;;;;;;;;28.69;32.47;100703.66;5056778;28;1116;-46
2022/06/05 02:40:40;;;;;;;;;;;;;;;28.67;32.04;100699.47;5049483;28;1013;-48
2022/06/05 02:43:07;;;;;;;;;;;;;;;28.68;32.89;100703.84;5053253;28;1025;-48
2022/06/05 02:45:51;;;;;;;;;;;;;;;28.66;32.81;100712.16;5059863;28;1104;-47
2022/06/05 02:48:35;;;;;;;;;;;;;;;28.69;32.53;100706.38;5033056;28;1367;-47
2022/06/05 02:51:02;;;;;;;;;;;;;;;28.65;32.43;100701.53;5056805;28;934;-47
2022/06/05 02:53:27;;;;;;;;;;;;;;;28.56;32.46;100708.97;5039168;28;1140;-47
2022/06/05 02:55:52;;;;;;;;;;;;;;;28.67;32.28;100704.88;5036472;28;1037;-47
2022/06/05 02:58:18;;;;;;;;;;;;;;;28.66;32.50;100695.91;5056611;28;1175;-50
2022/06/05 03:03:27;;;;;;;;;;;;;;;28.71;32.29;100696.16;5056329;28;1410;-47
2022/06/05 03:03:31;;;;;;;;;;;;;;;28.68;32.36;100696.56;5056260;28;930;-46
2022/06/05 03:05:59;;;;;;;;;;;;;;;28.65;32.49;100682.56;5056725;28;970;-46
2022/06/05 03:08:24;;;;;;;;;;;;;;;28.63;32.22;100690.09;5054782;28;1973;-48
2022/06/05 03:10:49;;;;;;;;;;;;;;;28.68;32.62;100693.84;5053308;28;1017;-43
2022/06/05 03:13:15;;;;;;;;;;;;;;;27.91;28.24;100685.38;5053223;28;1001;-46
2022/06/05 03:15:43;;;;;;;;;;;;;;;27.14;28.29;100695.34;5055327;28;1348;-42
2022/06/05 03:18:11;;;;;;;;;;;;;;;26.96;28.43;100682.16;5056086;28;997;-45
2022/06/05 03:20:36;;;;;;;;;;;;;;;26.27;29.55;100678.50;5038982;28;1199;-43
2022/06/05 03:23:02;;;;;;;;;;;;;;;26.27;28.00;100673.09;5056727;28;1017;-48
2022/06/05 03:25:27;;;;;;;;;;;;;;;26.63;27.47;100674.34;5055687;28;1187;-44
2022/06/05 03:27:53;;;;;;;;;;;;;;;26.54;26.90;100673.59;5055842;28;851;-47
2022/06/05 03:30:18;;;;;;;;;;;;;;;26.64;29.65;100670.66;5055904;28;1901;-46
2022/06/05 03:32:44;;;;;;;;;;;;;;;26.60;29.94;100670.19;5056330;28;1001;-45
2022/06/05 03:35:09;;;;;;;;;;;;;;;26.55;30.49;100669.88;5056102;28;1068;-44
2022/06/05 03:37:36;;;;;;;;;;;;;;;26.67;31.36;100667.59;5055846;28;1112;-43
2022/06/05 03:40:01;;;;;;;;;;;;;;;26.56;31.99;100668.03;5055222;28;1246;-45
2022/06/05 03:42:26;;;;;;;;;;;;;;;26.48;33.05;100668.91;5056289;28;1108;-45
2022/06/05 03:44:52;;;;;;;;;;;;;;;26.54;33.37;100660.13;5055783;28;1100;-44
2022/06/05 03:47:17;;;;;;;;;;;;;;;26.41;34.03;100658.84;5056286;28;1055;-45
2022/06/05 03:49:42;;;;;;;;;;;;;;;26.52;33.82;100660.31;5055946;28;1968;-45
2022/06/05 03:52:08;;;;;;;;;;;;;;;26.67;33.56;100664.03;5055448;28;1073;-55
2022/06/05 03:54:36;;;;;;;;;;;;;;;26.59;33.80;100649.59;5053465;28;1048;-51
2022/06/05 03:57:01;;;;;;;;;;;;;;;26.59;34.29;100646.09;5055972;28;997;-51
2022/06/05 03:59:27;;;;;;;;;;;;;;;26.65;33.69;100645.34;5054459;28;1159;-49
2022/06/05 04:01:52;;;;;;;;;;;;;;;26.41;35.00;100648.06;5055140;28;1507;-59
2022/06/05 04:04:17;;;;;;;;;;;;;;;26.60;34.33;100643.19;5056051;28;1159;-50
2022/06/05 04:06:42;;;;;;;;;;;;;;;26.58;34.44;100645.22;5055319;28;982;-50
2022/06/05 04:09:08;;;;;;;;;;;;;;;26.67;34.17;100637.06;5055470;28;1898;-51
2022/06/05 04:11:34;;;;;;;;;;;;;;;26.73;34.37;100639.88;5055908;28;1001;-47
2022/06/05 04:13:59;;;;;;;;;;;;;;;26.80;34.16;100644.53;5055726;28;1110;-49
2022/06/05 04:16:25;;;;;;;;;;;;;;;26.72;34.21;100642.75;5054934;28;1207;-48
2022/06/05 04:18:51;;;;;;;;;;;;;;;26.63;34.95;100633.88;5055301;28;1491;-58
2022/06/05 04:21:17;;;;;;;;;;;;;;;26.95;34.29;100629.22;5054163;28;1128;-57
2022/06/05 04:23:42;;;;;;;;;;;;;;;27.05;33.81;100628.13;5054241;28;1053;-52
2022/06/05 04:26:09;;;;;;;;;;;;;;;27.20;34.56;100625.41;5055330;28;1164;-52
2022/06/05 04:28:34;;;;;;;;;;;;;;;27.14;34.07;100624.31;5049813;28;1906;-51
2022/06/05 04:31:00;;;;;;;;;;;;;;;27.29;34.35;100620.75;5058905;28;943;-53
2022/06/05 04:33:25;;;;;;;;;;;;;;;27.18;34.31;100625.59;5059886;28;1001;-51
2022/06/05 04:35:50;;;;;;;;;;;;;;;27.32;34.52;100623.09;5041853;28;993;-55
2022/06/05 04:38:15;;;;;;;;;;;;;;;27.26;34.08;100616.56;5059169;28;1017;-55
2022/06/05 04:40:41;;;;;;;;;;;;;;;27.32;34.09;100615.00;5059320;28;981;-55
2022/06/05 04:43:08;;;;;;;;;;;;;;;27.38;34.62;100620.47;5059028;28;1076;-52
2022/06/05 04:45:33;;;;;;;;;;;;;;;27.34;34.22;100618.34;5059051;28;1115;-57
2022/06/05 04:47:58;;;;;;;;;;;;;;;27.41;34.26;100623.84;5059031;28;1095;-59
2022/06/05 04:50:24;;;;;;;;;;;;;;;27.36;33.98;100624.41;5059199;28;1902;-48
2022/06/05 04:52:49;;;;;;;;;;;;;;;27.42;34.80;100625.50;5059209;28;993;-50
2022/06/05 04:55:14;;;;;;;;;;;;;;;27.32;34.54;100633.88;5058938;28;1215;-51
2022/06/05 04:57:40;;;;;;;;;;;;;;;27.35;34.14;100633.50;5057938;28;958;-49
2022/06/05 05:00:05;;;;;;;;;;;;;;;27.41;34.64;100623.84;5058073;28;1202;-51
2022/06/05 05:02:30;;;;;;;;;;;;;;;27.53;34.42;100625.00;5052462;28;975;-49
2022/06/05 05:04:56;;;;;;;;;;;;;;;27.48;34.71;100620.19;5057919;28;1057;-51
2022/06/05 05:07:22;;;;;;;;;;;;;;;27.65;35.05;100622.66;5049222;28;1002;-56
2022/06/05 05:09:47;;;;;;;;;;;;;;;27.74;34.97;100618.84;5055899;28;1955;-54
2022/06/05 05:12:12;;;;;;;;;;;;;;;27.81;34.50;100618.09;5050841;28;1151;-50
2022/06/05 05:14:39;;;;;;;;;;;;;;;27.80;35.06;100624.53;5055468;28;1080;-45
2022/06/05 05:17:04;;;;;;;;;;;;;;;27.79;35.37;100620.16;5056862;28;1144;-48
2022/06/05 05:19:29;;;;;;;;;;;;;;;27.86;34.94;100619.19;5057275;28;1013;-46
2022/06/05 05:21:54;;;;;;;;;;;;;;;27.82;34.88;100620.59;5056006;28;1160;-45
2022/06/05 05:24:20;;;;;;;;;;;;;;;27.87;34.85;100618.19;5058469;28;981;-47
2022/06/05 05:26:45;;;;;;;;;;;;;;;27.94;35.13;100620.09;5059343;28;974;-42
2022/06/05 05:29:10;;;;;;;;;;;;;;;27.93;34.88;100626.53;5047245;28;1955;-50
2022/06/05 05:31:37;;;;;;;;;;;;;;;27.97;34.59;100627.81;5052333;28;836;-46
2022/06/05 05:34:02;;;;;;;;;;;;;;;27.63;32.15;100627.41;5051454;28;1005;-48
2022/06/05 05:36:28;;;;;;;;;;;;;;;27.83;32.60;100633.09;5055112;28;973;-49
2022/06/05 05:44:21;;;;;;;;;;;;;;;27.94;34.44;100637.16;5055677;28;1151;-49
2022/06/05 05:46:47;;;;;;;;;;;;;;;27.96;34.34;100636.97;5056949;28;1394;-47
2022/06/05 05:49:12;;;;;;;;;;;;;;;28.00;34.61;100632.84;5058265;28;1906;-47
2022/06/05 05:51:38;;;;;;;;;;;;;;;27.97;34.50;100627.81;5054229;28;1180;-46
2022/06/05 05:54:03;;;;;;;;;;;;;;;28.00;34.55;100632.84;5057509;28;939;-46
2022/06/05 05:56:28;;;;;;;;;;;;;;;28.05;34.60;100634.97;5057571;28;1259;-49
2022/06/05 05:58:53;;;;;;;;;;;;;;;28.06;34.73;100628.56;5038892;28;1252;-50
2022/06/05 06:01:19;;;;;;;;;;;;;;;28.03;34.98;100629.75;5058366;28;880;-51
2022/06/05 06:03:44;;;;;;;;;;;;;;;28.11;35.08;100621.53;5056876;28;1184;-46
2022/06/05 06:06:09;;;;;;;;;;;;;;;28.17;35.21;100630.75;5058126;28;808;-46
2022/06/05 06:08:35;;;;;;;;;;;;;;;28.14;35.04;100633.84;5039230;28;1889;-46
2022/06/05 06:11:00;;;;;;;;;;;;;;;28.20;35.37;100624.94;5054242;28;985;-44
2022/06/05 06:13:25;;;;;;;;;;;;;;;28.19;35.30;100625.13;5057167;28;930;-45
2022/06/05 06:15:50;;;;;;;;;;;;;;;28.20;35.28;100622.22;5052065;28;1060;-44
2022/06/05 06:18:16;;;;;;;;;;;;;;;28.22;35.08;100622.88;5055442;28;1132;-46
2022/06/05 06:20:41;;;;;;;;;;;;;;;28.23;35.26;100624.56;5057404;28;1232;-46
2022/06/05 06:23:06;;;;;;;;;;;;;;;28.33;35.30;100628.81;5054913;28;1013;-46
2022/06/05 06:25:32;;;;;;;;;;;;;;;28.29;35.27;100619.41;5054812;28;1080;-46
2022/06/05 06:27:57;;;;;;;;;;;;;;;28.29;35.34;100619.41;5054459;28;1140;-48
2022/06/05 06:30:22;;;;;;;;;;;;;;;28.29;35.59;100616.69;5057145;28;1906;-46
2022/06/05 06:32:48;;;;;;;;;;;;;;;28.33;35.67;100616.13;5057564;28;1215;-48
2022/06/05 06:35:13;;;;;;;;;;;;;;;28.34;35.10;100616.97;5057739;28;1016;-47
2022/06/05 06:37:38;;;;;;;;;;;;;;;28.35;35.36;100615.94;5052418;28;973;-44
2022/06/05 06:40:04;;;;;;;;;;;;;;;28.34;35.43;100615.09;5052835;28;1076;-48
2022/06/05 06:42:29;;;;;;;;;;;;;;;28.34;35.06;100615.09;5057493;28;1053;-45
2022/06/05 06:44:55;;;;;;;;;;;;;;;28.36;35.37;100613.03;5056580;28;1267;-45
2022/06/05 06:47:20;;;;;;;;;;;;;;;28.43;35.40;100609.53;5055302;28;1326;-46
2022/06/05 06:49:45;;;;;;;;;;;;;;;28.41;35.24;100614.34;5056799;28;1910;-46
2022/06/05 06:52:11;;;;;;;;;;;;;;;28.39;34.90;100619.94;5055386;28;1203;-48
2022/06/05 06:54:36;;;;;;;;;;;;;;;28.43;35.27;100614.94;5056921;28;1318;-45
2022/06/05 06:57:01;;;;;;;;;;;;;;;28.45;35.02;100615.59;5056578;28;1203;-47
2022/06/05 06:59:27;;;;;;;;;;;;;;;28.51;35.02;100620.22;5056019;28;1132;-46
2022/06/05 07:01:53;;;;;;;;;;;;;;;28.46;34.88;100614.59;5053030;28;1168;-49
2022/06/05 07:04:18;;;;;;;;;;;;;;;28.54;34.81;100608.19;5054161;28;1202;-46
2022/06/05 07:06:43;;;;;;;;;;;;;;;28.53;35.04;100612.75;5054906;28;1081;-45
2022/06/05 07:09:09;;;;;;;;;;;;;;;28.53;34.97;100604.63;5055031;28;1965;-48
2022/06/05 07:11:34;;;;;;;;;;;;;;;28.58;34.80;100609.47;5035171;28;1325;-46
2022/06/05 07:13:59;;;;;;;;;;;;;;;28.60;34.83;100615.50;5054924;28;1100;-47
2022/06/05 07:16:25;;;;;;;;;;;;;;;28.61;34.74;100611.78;5054470;28;1248;-49
2022/06/05 07:18:50;;;;;;;;;;;;;;;28.63;34.74;100608.88;5054837;28;1243;-45
2022/06/05 07:21:16;;;;;;;;;;;;;;;28.72;34.25;100600.41;5054369;28;1220;-49
2022/06/05 07:23:42;;;;;;;;;;;;;;;28.76;34.28;100605.44;5049322;28;1001;-45
2022/06/05 07:26:08;;;;;;;;;;;;;;;28.75;34.55;100607.28;5052041;28;977;-45
2022/06/05 07:28:34;;;;;;;;;;;;;;;28.82;34.71;100608.19;5034386;28;1902;-45
2022/06/05 07:31:00;;;;;;;;;;;;;;;28.93;34.14;100606.78;5055763;28;1056;-47
2022/06/05 07:33:25;;;;;;;;;;;;;;;28.83;34.52;100603.59;5054477;28;1156;-45
2022/06/05 07:35:55;;;;;;;;;;;;;;;28.91;34.42;100603.44;5054917;28;1052;-46
2022/06/05 07:38:20;;;;;;;;;;;;;;;28.92;34.34;100604.28;5053543;28;1183;-45
2022/06/05 07:40:46;;;;;;;;;;;;;;;28.95;34.01;100602.00;5052154;28;1016;-44
2022/06/05 07:43:11;;;;;;;;;;;;;;;28.94;34.15;100592.22;5050498;28;954;-44
2022/06/05 07:45:37;;;;;;;;;;;;;;;28.96;33.81;100595.56;5054031;28;1017;-45
2022/06/05 07:48:02;;;;;;;;;;;;;;;29.00;33.68;100598.72;5027805;28;1187;-46
2022/06/05 07:50:28;;;;;;;;;;;;;;;29.03;33.48;100595.63;5055902;28;1910;-47
2022/06/05 07:55:37;;;;;;;;;;;;;;;29.03;33.36;100586.69;5054484;28;1393;-44
2022/06/05 07:58:02;;;;;;;;;;;;;;;29.13;32.90;100592.53;5055529;28;1297;-44
2022/06/05 08:00:29;;;;;;;;;;;;;;;29.13;32.84;100591.72;5054867;28;1271;-46
2022/06/05 08:02:54;;;;;;;;;;;;;;;29.17;32.60;100587.56;5055189;28;1231;-44
2022/06/05 08:05:19;;;;;;;;;;;;;;;29.14;32.79;100587.97;5055343;28;1220;-45
2022/06/05 08:07:45;;;;;;;;;;;;;;;29.16;32.56;100592.13;5055276;28;1282;-43
2022/06/05 08:10:10;;;;;;;;;;;;;;;29.20;32.63;100584.44;5055377;28;1902;-42
2022/06/05 08:12:36;;;;;;;;;;;;;;;29.21;32.27;100591.56;5055266;28;1283;-42
2022/06/05 08:15:05;;;;;;;;;;;;;;;29.22;32.00;100582.38;5055112;28;1345;-41
2022/06/05 08:17:31;;;;;;;;;;;;;;;29.24;32.14;100587.59;5055362;28;1235;-44
2022/06/05 08:19:56;;;;;;;;;;;;;;;29.24;32.05;100587.59;5051940;28;1398;-42
2022/06/05 08:22:22;;;;;;;;;;;;;;;29.22;31.91;100587.81;5055342;28;1192;-43
2022/06/05 08:24:47;;;;;;;;;;;;;;;29.29;31.81;100582.41;5055497;28;1294;-43
2022/06/05 08:27:14;;;;;;;;;;;;;;;29.29;31.80;100585.97;5055589;28;1092;-46
2022/06/05 08:29:39;;;;;;;;;;;;;;;29.31;31.94;100583.88;5055089;28;1902;-44
2022/06/05 08:32:05;;;;;;;;;;;;;;;29.37;31.75;100579.53;5054470;28;1219;-43
2022/06/05 08:34:30;;;;;;;;;;;;;;;29.37;31.56;100581.41;5055602;28;1096;-44
2022/06/05 08:42:38;;;;;;;;;;;;;;;29.33;31.61;100572.84;5052738;28;1034;-43
2022/06/05 08:45:07;;;;;;;;;;;;;;;28.60;31.36;100458.56;5054925;28;1077;-43
2022/06/05 08:47:36;;;;;;;;;;;;;;;29.35;31.51;100573.47;5054147;28;1192;-43
2022/06/05 08:50:10;;;;;;;;;;;;;;;29.40;31.27;100564.72;5054935;28;1929;-43
2022/06/05 08:52:39;;;;;;;;;;;;;;;29.42;30.96;100559.94;5055101;28;1259;-44
2022/06/05 08:55:22;;;;;;;;;;;;;;;29.45;30.61;100567.66;5036859;28;1156;-45
2022/06/05 08:57:50;;;;;;;;;;;;;;;29.43;30.74;100558.91;5054425;28;1148;-47
2022/06/05 09:00:20;;;;;;;;;;;;;;;29.42;30.75;100557.25;5036086;28;1359;-42
2022/06/05 09:02:49;;;;;;;;;;;;;;;29.44;30.45;100556.03;5053233;28;1207;-44
2022/06/05 09:05:24;;;;;;;;;;;;;;;29.46;30.54;100558.53;5035728;28;1233;-42
2022/06/05 09:07:53;;;;;;;;;;;;;;;29.48;30.48;100553.72;5037171;28;1240;-42
2022/06/05 09:10:33;;;;;;;;;;;;;;;29.49;30.36;100554.56;5036972;28;1890;-43
2022/06/05 09:13:08;;;;;;;;;;;;;;;29.55;30.38;100545.59;5054704;28;1006;-44
2022/06/05 09:15:40;;;;;;;;;;;;;;;29.56;30.27;100552.72;5055936;28;1025;-43
2022/06/05 09:18:16;;;;;;;;;;;;;;;29.54;30.54;100549.38;5041056;28;1248;-43
2022/06/05 09:20:51;;;;;;;;;;;;;;;29.59;30.33;100552.31;5058451;28;1219;-44
2022/06/05 09:23:21;;;;;;;;;;;;;;;29.61;30.25;100541.28;5058117;28;1124;-45
2022/06/05 09:25:51;;;;;;;;;;;;;;;29.62;30.15;100543.78;5058176;28;1294;-43
2022/06/05 09:28:44;;;;;;;;;;;;;;;29.67;30.06;100535.88;5040816;28;1282;-42
2022/06/05 09:31:10;;;;;;;;;;;;;;;29.62;30.26;100537.50;5054452;28;1195;-42
2022/06/05 09:33:36;;;;;;;;;;;;;;;29.64;30.36;100533.56;5058636;28;1081;-43
2022/06/05 09:36:03;;;;;;;;;;;;;;;29.69;30.36;100530.25;5039950;28;1231;-42
2022/06/05 09:38:42;;;;;;;;;;;;;;;29.69;30.45;100524.81;5039799;28;1026;-42
2022/06/05 09:41:10;;;;;;;;;;;;;;;29.72;30.40;100528.97;5058267;28;1224;-43
2022/06/05 09:43:45;;;;;;;;;;;;;;;29.78;30.38;100523.56;5057721;28;1148;-43
2022/06/05 09:46:10;;;;;;;;;;;;;;;29.77;30.60;100512.94;5040033;28;1247;-42
2022/06/05 09:48:36;;;;;;;;;;;;;;;29.78;30.73;100512.72;5057181;28;1975;-41
2022/06/05 09:51:01;;;;;;;;;;;;;;;29.84;30.73;100511.06;5057915;28;1333;-42
2022/06/05 09:53:28;;;;;;;;;;;;;;;29.87;30.71;100513.38;5057733;28;1180;-41
2022/06/05 09:56:06;;;;;;;;;;;;;;;29.90;30.88;100518.38;5040621;28;1330;-41
2022/06/05 09:58:31;;;;;;;;;;;;;;;29.86;30.93;100509.00;5039690;28;1244;-43
2022/06/05 10:00:58;;;;;;;;;;;;;;;29.94;30.93;100513.38;5057465;28;1203;-42
2022/06/05 10:03:29;;;;;;;;;;;;;;;29.94;31.09;100503.38;5057542;28;969;-43
2022/06/05 10:06:13;;;;;;;;;;;;;;;29.89;31.20;100505.03;5039973;28;1303;-41
2022/06/05 10:08:41;;;;;;;;;;;;;;;29.96;31.24;100502.31;5057528;28;1929;-42
2022/06/05 10:11:08;;;;;;;;;;;;;;;30.02;31.28;100506.91;5039970;28;1248;-46
2022/06/05 10:13:40;;;;;;;;;;;;;;;30.09;31.31;100505.03;5039180;28;1275;-48
2022/06/05 10:16:06;;;;;;;;;;;;;;;30.09;31.25;100507.75;5056018;28;1022;-42
2022/06/05 10:18:50;;;;;;;;;;;;;;;30.05;31.33;100512.75;5038371;28;1267;-43
2022/06/05 10:21:20;;;;;;;;;;;;;;;30.04;31.44;100513.81;5056355;28;1077;-42
2022/06/05 10:24:03;;;;;;;;;;;;;;;30.06;31.50;100508.97;5039675;28;1156;-40
2022/06/05 10:26:39;;;;;;;;;;;;;;;30.07;31.40;100509.81;5056018;28;1180;-44
2022/06/05 10:29:30;;;;;;;;;;;;;;;30.07;31.72;100509.81;5055733;28;1950;-42
2022/06/05 10:32:02;;;;;;;;;;;;;;;30.10;31.72;100505.84;5052725;28;1196;-42
2022/06/05 10:34:36;;;;;;;;;;;;;;;30.08;31.75;100507.94;5056984;28;1171;-45
2022/06/05 10:37:12;;;;;;;;;;;;;;;30.10;31.72;100514.81;5055053;28;1275;-42
2022/06/05 10:39:40;;;;;;;;;;;;;;;30.09;31.69;100517.75;5038485;28;1244;-42
2022/06/05 10:42:15;;;;;;;;;;;;;;;30.02;31.84;100521.31;5056784;28;1263;-41
2022/06/05 10:44:53;;;;;;;;;;;;;;;30.01;31.56;100535.88;5039433;28;1141;-43
2022/06/05 10:47:26;;;;;;;;;;;;;;;29.97;31.82;100537.34;5038702;28;1088;-43
2022/06/05 10:50:10;;;;;;;;;;;;;;;29.96;32.10;100535.69;5038667;28;1964;-43
2022/06/05 10:52:36;;;;;;;;;;;;;;;29.95;31.79;100536.72;5055725;28;1200;-43
2022/06/05 10:55:10;;;;;;;;;;;;;;;29.95;32.10;100534.00;5056765;28;1223;-44
2022/06/05 10:57:36;;;;;;;;;;;;;;;30.00;32.25;100538.81;5056745;28;1211;-42
2022/06/05 11:00:02;;;;;;;;;;;;;;;29.96;32.06;100533.00;5035907;28;1125;-43
2022/06/05 11:02:36;;;;;;;;;;;;;;;29.96;32.11;100535.69;5056077;28;1053;-43
2022/06/05 11:05:04;;;;;;;;;;;;;;;29.86;33.01;100527.13;5050414;28;961;-42
2022/06/05 11:07:40;;;;;;;;;;;;;;;29.77;33.61;100530.03;5056511;28;1037;-43
2022/06/05 11:13:39;;;;;;;;;;;;;;;29.76;33.70;100527.53;5033240;28;1964;-43
2022/06/05 11:16:08;;;;;;;;;;;;;;;29.71;35.83;100517.31;5040271;28;997;-46
2022/06/05 11:18:39;;;;;;;;;;;;;;;29.77;36.46;100515.66;5052031;28;927;-45
2022/06/05 11:21:04;;;;;;;;;;;;;;;29.74;35.13;100506.06;5039062;28;1061;-46
2022/06/05 11:23:32;;;;;;;;;;;;;;;29.81;37.68;100508.78;5056520;28;1076;-50
2022/06/05 11:26:04;;;;;;;;;;;;;;;29.88;36.41;100501.47;5037287;28;1192;-46
2022/06/05 11:28:33;;;;;;;;;;;;;;;29.82;36.23;100492.31;5056072;28;1017;-45
2022/06/05 11:31:13;;;;;;;;;;;;;;;29.77;36.51;100489.38;5055310;28;1959;-45
2022/06/05 11:33:42;;;;;;;;;;;;;;;29.75;37.04;100494.16;5050537;28;1072;-44
2022/06/05 11:36:12;;;;;;;;;;;;;;;29.79;36.74;100484.59;5038380;28;1256;-46
2022/06/05 11:38:37;;;;;;;;;;;;;;;29.11;41.51;100480.03;5031859;28;978;-46
2022/06/05 11:41:02;;;;;;;;;;;;;;;28.92;41.74;100485.16;5055642;28;1501;-48
2022/06/05 11:43:32;;;;;;;;;;;;;;;28.75;42.25;100484.66;5055731;28;1056;-45
2022/06/05 11:45:57;;;;;;;;;;;;;;;28.73;42.49;100492.97;5061034;28;1060;-45
2022/06/05 11:48:39;;;;;;;;;;;;;;;28.76;42.56;100497.97;5055821;28;1201;-45
2022/06/05 11:51:23;;;;;;;;;;;;;;;28.61;44.97;100500.84;5037876;28;1025;-45
2022/06/05 11:54:07;;;;;;;;;;;;;;;28.63;46.20;100506.88;5054582;28;1041;-45
2022/06/05 11:56:35;;;;;;;;;;;;;;;28.70;44.37;100504.19;5054919;28;1182;-48
2022/06/05 11:59:15;;;;;;;;;;;;;;;28.84;43.18;100507.81;5037828;28;1158;-46
2022/06/05 12:01:44;;;;;;;;;;;;;;;29.36;41.07;100507.44;5055454;28;1144;-46
2022/06/05 12:04:28;;;;;;;;;;;;;;;29.19;41.56;100499.66;5031441;28;978;-46
2022/06/05 12:06:57;;;;;;;;;;;;;;;29.04;42.35;100482.72;5055637;28;1090;-47
2022/06/05 12:09:23;;;;;;;;;;;;;;;29.19;42.15;100482.56;5055213;28;1894;-47
2022/06/05 12:12:07;;;;;;;;;;;;;;;29.64;39.89;100475.81;5055947;28;1048;-47
2022/06/05 12:14:32;;;;;;;;;;;;;;;29.57;40.17;100475.78;5045742;28;970;-46
2022/06/05 12:17:16;;;;;;;;;;;;;;;29.50;40.46;100480.34;5055337;28;1049;-47
2022/06/05 12:19:48;;;;;;;;;;;;;;;29.55;39.97;100488.69;5031102;28;1017;-48
2022/06/05 12:22:32;;;;;;;;;;;;;;;29.76;38.81;100484.16;5053904;28;1284;-48
2022/06/05 12:25:12;;;;;;;;;;;;;;;29.86;38.23;100492.72;5054393;28;1010;-50
2022/06/05 12:27:46;;;;;;;;;;;;;;;29.72;38.06;100491.88;5055696;28;986;-46
2022/06/05 12:30:16;;;;;;;;;;;;;;;29.52;38.13;100500.78;5031839;28;1902;-44
2022/06/05 12:32:45;;;;;;;;;;;;;;;29.09;38.77;100491.09;5037206;28;1141;-47
2022/06/05 12:35:15;;;;;;;;;;;;;;;28.71;38.76;100479.63;5036765;28;1025;-47
2022/06/05 12:37:41;;;;;;;;;;;;;;;28.51;38.21;100478.72;5055449;28;1144;-46
2022/06/05 12:40:15;;;;;;;;;;;;;;;28.58;36.94;100475.00;5037170;28;1014;-50
2022/06/05 12:42:41;;;;;;;;;;;;;;;28.53;37.20;100472.06;5055467;28;1176;-45
2022/06/05 12:45:14;;;;;;;;;;;;;;;28.73;37.99;100472.16;5036574;28;1224;-49
2022/06/05 12:47:55;;;;;;;;;;;;;;;29.24;38.13;100457.56;5051309;28;1412;-46
2022/06/05 12:50:39;;;;;;;;;;;;;;;28.91;39.10;100459.94;5057056;28;1886;-49
2022/06/05 12:53:09;;;;;;;;;;;;;;;28.82;39.70;100464.72;5059686;28;1132;-45
2022/06/05 12:55:36;;;;;;;;;;;;;;;28.75;37.73;100461.13;5040733;28;1193;-45
2022/06/05 12:58:10;;;;;;;;;;;;;;;28.74;36.81;100445.94;5058264;28;1271;-45
2022/06/05 13:00:54;;;;;;;;;;;;;;;29.11;36.72;100437.56;5058691;28;1133;-48
2022/06/05 13:03:38;;;;;;;;;;;;;;;29.54;36.09;100433.66;5059249;28;1056;-46
2022/06/05 13:06:14;;;;;;;;;;;;;;;29.52;36.05;100424.06;5057974;28;1033;-47
2022/06/05 13:08:39;;;;;;;;;;;;;;;29.49;35.97;100428.03;5038912;28;1081;-49
2022/06/05 13:11:13;;;;;;;;;;;;;;;29.45;35.83;100427.59;5058843;28;1894;-48
2022/06/05 13:14:02;;;;;;;;;;;;;;;29.56;35.97;100434.28;5058770;28;942;-50
2022/06/05 13:16:38;;;;;;;;;;;;;;;29.44;36.25;100430.53;5037424;28;1103;-47